sensor_id;sensor_type;location;lat;lon;timestamp;P1;durP1;ratioP1;P2;durP2;ratioP2
40601;SDS011;26310;50.278;19.032;2023-04-03T04:33:15;4.30;;;2.73;;
40601;SDS011;26310;50.278;19.032;2023-04-03T04:38:18;3.73;;;2.23;;
40601;SDS011;26310;50.278;19.032;2023-04-03T04:43:21;4.27;;;2.37;;
40601;SDS011;26310;50.278;19.032;2023-04-03T04:48:24;4.20;;;2.60;;
40601;SDS011;26310;50.278;19.032;2023-04-03T04:53:27;3.17;;;2.83;;
40601;SDS011;26310;50.278;19.032;2023-04-03T04:58:30;6.97;;;2.87;;
40601;SDS011;26310;50.278;19.032;2023-04-03T05:03:32;3.80;;;2.80;;
40601;SDS011;26310;50.278;19.032;2023-04-03T05:08:36;3.43;;;2.57;;
40601;SDS011;26310;50.278;19.032;2023-04-03T05:13:38;5.27;;;3.40;;
40601;SDS011;26310;50.278;19.032;2023-04-03T05:18:41;20.17;;;2.80;;
40601;SDS011;26310;50.278;19.032;2023-04-03T05:23:44;9.23;;;3.13;;
40601;SDS011;26310;50.278;19.032;2023-04-03T05:28:47;6.47;;;2.93;;
40601;SDS011;26310;50.278;19.032;2023-04-03T05:33:49;3.03;;;2.60;;
40601;SDS011;26310;50.278;19.032;2023-04-03T05:38:52;3.30;;;3.00;;
40601;SDS011;26310;50.278;19.032;2023-04-03T05:43:58;5.93;;;2.90;;
40601;SDS011;26310;50.278;19.032;2023-04-03T05:49:01;4.30;;;3.37;;
40601;SDS011;26310;50.278;19.032;2023-04-03T05:54:14;4.37;;;2.50;;
40601;SDS011;26310;50.278;19.032;2023-04-03T05:59:20;4.97;;;2.13;;
40601;SDS011;26310;50.278;19.032;2023-04-03T06:04:24;2.50;;;2.30;;
40601;SDS011;26310;50.278;19.032;2023-04-03T06:09:28;3.50;;;2.57;;
40601;SDS011;26310;50.278;19.032;2023-04-03T06:14:31;2.73;;;2.53;;
40601;SDS011;26310;50.278;19.032;2023-04-03T06:19:34;3.20;;;2.67;;
40601;SDS011;26310;50.278;19.032;2023-04-03T06:24:37;3.67;;;3.03;;
40601;SDS011;26310;50.278;19.032;2023-04-03T06:29:41;3.33;;;2.40;;
40601;SDS011;26310;50.278;19.032;2023-04-03T06:34:43;4.13;;;2.53;;
40601;SDS011;26310;50.278;19.032;2023-04-03T06:39:47;3.60;;;2.60;;
40601;SDS011;26310;50.278;19.032;2023-04-03T06:44:50;6.43;;;2.47;;
40601;SDS011;26310;50.278;19.032;2023-04-03T06:49:53;12.13;;;2.80;;
40601;SDS011;26310;50.278;19.032;2023-04-03T06:54:56;3.43;;;2.23;;
40601;SDS011;26310;50.278;19.032;2023-04-03T07:00:01;5.30;;;3.37;;
40601;SDS011;26310;50.278;19.032;2023-04-03T07:05:06;2.37;;;2.20;;
40601;SDS011;26310;50.278;19.032;2023-04-03T07:10:09;5.83;;;3.07;;
40601;SDS011;26310;50.278;19.032;2023-04-03T07:15:12;6.97;;;2.87;;
40601;SDS011;26310;50.278;19.032;2023-04-03T07:20:16;3.27;;;2.67;;
40601;SDS011;26310;50.278;19.032;2023-04-03T07:25:19;3.80;;;2.70;;
40601;SDS011;26310;50.278;19.032;2023-04-03T07:30:22;10.83;;;2.77;;
40601;SDS011;26310;50.278;19.032;2023-04-03T07:35:25;4.07;;;2.77;;
40601;SDS011;26310;50.278;19.032;2023-04-03T07:40:28;3.13;;;2.13;;
40601;SDS011;26310;50.278;19.032;2023-04-03T07:45:31;4.37;;;3.10;;
40601;SDS011;26310;50.278;19.032;2023-04-03T07:50:37;7.97;;;3.60;;
40601;SDS011;26310;50.278;19.032;2023-04-03T07:55:41;3.20;;;2.53;;
40601;SDS011;26310;50.278;19.032;2023-04-03T08:00:45;2.70;;;1.87;;
40601;SDS011;26310;50.278;19.032;2023-04-03T08:05:48;4.17;;;2.33;;
40601;SDS011;26310;50.278;19.032;2023-04-03T08:10:52;4.20;;;2.90;;
40601;SDS011;26310;50.278;19.032;2023-04-03T08:15:56;3.90;;;2.37;;
40601;SDS011;26310;50.278;19.032;2023-04-03T08:21:00;3.03;;;1.90;;
40601;SDS011;26310;50.278;19.032;2023-04-03T08:26:07;4.53;;;2.37;;
40601;SDS011;26310;50.278;19.032;2023-04-03T08:31:15;3.17;;;2.00;;
40601;SDS011;26310;50.278;19.032;2023-04-03T08:36:24;3.83;;;2.27;;
40601;SDS011;26310;50.278;19.032;2023-04-03T08:41:30;4.03;;;2.30;;
40601;SDS011;26310;50.278;19.032;2023-04-03T08:51:41;6.37;;;3.07;;
40601;SDS011;26310;50.278;19.032;2023-04-03T08:56:48;4.20;;;2.40;;
40601;SDS011;26310;50.278;19.032;2023-04-03T09:01:51;6.43;;;2.00;;
40601;SDS011;26310;50.278;19.032;2023-04-03T09:06:57;2.93;;;1.63;;
40601;SDS011;26310;50.278;19.032;2023-04-03T09:12:16;2.10;;;1.90;;
40601;SDS011;26310;50.278;19.032;2023-04-03T09:17:33;3.10;;;1.67;;
40601;SDS011;26310;50.278;19.032;2023-04-03T09:22:57;1.93;;;1.67;;
40601;SDS011;26310;50.278;19.032;2023-04-03T09:28:00;2.13;;;1.50;;
40601;SDS011;26310;50.278;19.032;2023-04-03T09:33:04;1.53;;;1.43;;
40601;SDS011;26310;50.278;19.032;2023-04-03T09:43:25;1.60;;;1.50;;
40601;SDS011;26310;50.278;19.032;2023-04-03T09:48:30;4.90;;;1.70;;
40601;SDS011;26310;50.278;19.032;2023-04-03T09:53:40;2.80;;;2.23;;
40601;SDS011;26310;50.278;19.032;2023-04-03T09:58:45;6.17;;;2.23;;
40601;SDS011;26310;50.278;19.032;2023-04-03T10:04:13;3.03;;;2.10;;
40601;SDS011;26310;50.278;19.032;2023-04-03T10:14:29;2.03;;;1.57;;
40601;SDS011;26310;50.278;19.032;2023-04-03T10:24:48;4.37;;;2.03;;
40601;SDS011;26310;50.278;19.032;2023-04-03T10:30:19;3.53;;;1.93;;
40601;SDS011;26310;50.278;19.032;2023-04-03T10:35:40;1.97;;;1.40;;
40601;SDS011;26310;50.278;19.032;2023-04-03T10:51:46;1.73;;;1.60;;
40601;SDS011;26310;50.278;19.032;2023-04-03T10:56:54;2.53;;;1.63;;
40601;SDS011;26310;50.278;19.032;2023-04-03T11:02:25;1.80;;;1.70;;
40601;SDS011;26310;50.278;19.032;2023-04-03T11:07:34;1.30;;;1.20;;
40601;SDS011;26310;50.278;19.032;2023-04-03T11:12:43;4.30;;;1.60;;
40601;SDS011;26310;50.278;19.032;2023-04-03T11:18:06;1.83;;;1.33;;
40601;SDS011;26310;50.278;19.032;2023-04-03T11:23:24;2.83;;;2.00;;
40601;SDS011;26310;50.278;19.032;2023-04-03T11:28:55;3.83;;;1.67;;
40601;SDS011;26310;50.278;19.032;2023-04-03T11:34:14;1.57;;;1.40;;
40601;SDS011;26310;50.278;19.032;2023-04-03T11:39:40;3.13;;;1.53;;
40601;SDS011;26310;50.278;19.032;2023-04-03T12:00:57;1.77;;;1.60;;
40601;SDS011;26310;50.278;19.032;2023-04-03T12:47:55;1.77;;;1.43;;
40601;SDS011;26310;50.278;19.032;2023-04-03T12:53:03;2.10;;;1.40;;
40601;SDS011;26310;50.278;19.032;2023-04-03T12:58:17;4.13;;;1.77;;
40601;SDS011;26310;50.278;19.032;2023-04-03T13:03:26;2.03;;;1.73;;
40601;SDS011;26310;50.278;19.032;2023-04-03T13:08:30;7.03;;;1.70;;
40601;SDS011;26310;50.278;19.032;2023-04-03T13:13:33;3.33;;;1.50;;
40601;SDS011;26310;50.278;19.032;2023-04-03T13:18:36;5.53;;;1.90;;
40601;SDS011;26310;50.278;19.032;2023-04-03T13:49:34;2.60;;;1.80;;
40601;SDS011;26310;50.278;19.032;2023-04-03T13:54:38;2.00;;;1.60;;
40601;SDS011;26310;50.278;19.032;2023-04-03T13:59:41;2.67;;;1.60;;
40601;SDS011;26310;50.278;19.032;2023-04-03T14:04:46;1.70;;;1.60;;
40601;SDS011;26310;50.278;19.032;2023-04-03T14:09:54;2.10;;;1.63;;
40601;SDS011;26310;50.278;19.032;2023-04-03T14:14:58;3.03;;;1.77;;
40601;SDS011;26310;50.278;19.032;2023-04-03T14:20:02;2.03;;;1.80;;
40601;SDS011;26310;50.278;19.032;2023-04-03T14:25:06;3.53;;;1.50;;
40601;SDS011;26310;50.278;19.032;2023-04-03T14:30:12;1.97;;;1.60;;
40601;SDS011;26310;50.278;19.032;2023-04-03T14:35:18;2.20;;;1.80;;
40601;SDS011;26310;50.278;19.032;2023-04-03T14:40:23;2.33;;;1.70;;
40601;SDS011;26310;50.278;19.032;2023-04-03T14:45:27;1.67;;;1.50;;
40601;SDS011;26310;50.278;19.032;2023-04-03T14:50:30;2.37;;;1.80;;
40601;SDS011;26310;50.278;19.032;2023-04-03T14:55:33;3.70;;;1.47;;
40601;SDS011;26310;50.278;19.032;2023-04-03T15:00:36;1.90;;;1.67;;
40601;SDS011;26310;50.278;19.032;2023-04-03T15:05:39;5.83;;;1.60;;
40601;SDS011;26310;50.278;19.032;2023-04-03T15:10:43;1.60;;;1.50;;
40601;SDS011;26310;50.278;19.032;2023-04-03T15:15:46;1.83;;;1.40;;
40601;SDS011;26310;50.278;19.032;2023-04-03T15:20:49;2.50;;;2.00;;
40601;SDS011;26310;50.278;19.032;2023-04-03T15:25:52;2.13;;;1.77;;
40601;SDS011;26310;50.278;19.032;2023-04-03T15:30:56;2.87;;;1.60;;
40601;SDS011;26310;50.278;19.032;2023-04-03T15:35:59;2.63;;;1.67;;
40601;SDS011;26310;50.278;19.032;2023-04-03T15:41:12;1.87;;;1.67;;
40601;SDS011;26310;50.278;19.032;2023-04-03T15:46:15;2.30;;;1.73;;
40601;SDS011;26310;50.278;19.032;2023-04-03T15:51:18;8.10;;;1.77;;
40601;SDS011;26310;50.278;19.032;2023-04-03T15:56:21;2.80;;;1.70;;
40601;SDS011;26310;50.278;19.032;2023-04-03T16:01:23;2.90;;;2.20;;
40601;SDS011;26310;50.278;19.032;2023-04-03T16:06:26;2.80;;;1.83;;
40601;SDS011;26310;50.278;19.032;2023-04-03T16:11:32;3.00;;;1.83;;
40601;SDS011;26310;50.278;19.032;2023-04-03T16:16:37;4.07;;;1.50;;
40601;SDS011;26310;50.278;19.032;2023-04-03T16:21:40;1.60;;;1.50;;
40601;SDS011;26310;50.278;19.032;2023-04-03T16:26:43;6.30;;;2.07;;
40601;SDS011;26310;50.278;19.032;2023-04-03T16:31:46;4.13;;;2.00;;
40601;SDS011;26310;50.278;19.032;2023-04-03T16:36:49;3.20;;;1.93;;
40601;SDS011;26310;50.278;19.032;2023-04-03T16:41:53;1.40;;;1.30;;
40601;SDS011;26310;50.278;19.032;2023-04-03T16:46:56;3.03;;;2.00;;
40601;SDS011;26310;50.278;19.032;2023-04-03T16:52:04;1.97;;;1.80;;
40601;SDS011;26310;50.278;19.032;2023-04-03T16:57:07;5.23;;;1.87;;
40601;SDS011;26310;50.278;19.032;2023-04-03T17:02:10;4.83;;;2.30;;
40601;SDS011;26310;50.278;19.032;2023-04-03T17:07:13;2.57;;;1.70;;
40601;SDS011;26310;50.278;19.032;2023-04-03T17:12:16;5.73;;;2.67;;
40601;SDS011;26310;50.278;19.032;2023-04-03T17:17:20;3.27;;;2.03;;
40601;SDS011;26310;50.278;19.032;2023-04-03T17:22:24;2.60;;;1.57;;
40601;SDS011;26310;50.278;19.032;2023-04-03T17:27:27;3.93;;;2.47;;
40601;SDS011;26310;50.278;19.032;2023-04-03T17:32:30;5.03;;;2.40;;
40601;SDS011;26310;50.278;19.032;2023-04-03T17:37:33;3.97;;;2.07;;
40601;SDS011;26310;50.278;19.032;2023-04-03T17:42:36;7.77;;;2.47;;
40601;SDS011;26310;50.278;19.032;2023-04-03T17:47:39;3.97;;;2.30;;
40601;SDS011;26310;50.278;19.032;2023-04-03T17:52:42;4.00;;;2.50;;
40601;SDS011;26310;50.278;19.032;2023-04-03T17:57:45;2.93;;;2.60;;
40601;SDS011;26310;50.278;19.032;2023-04-03T18:02:51;3.77;;;2.20;;
40601;SDS011;26310;50.278;19.032;2023-04-03T18:07:55;2.70;;;2.33;;
40601;SDS011;26310;50.278;19.032;2023-04-03T18:12:58;4.27;;;3.67;;
40601;SDS011;26310;50.278;19.032;2023-04-03T18:18:01;6.73;;;3.73;;
40601;SDS011;26310;50.278;19.032;2023-04-03T18:23:04;7.23;;;4.03;;
40601;SDS011;26310;50.278;19.032;2023-04-03T18:28:07;4.00;;;2.53;;
40601;SDS011;26310;50.278;19.032;2023-04-03T18:33:12;7.60;;;3.60;;
40601;SDS011;26310;50.278;19.032;2023-04-03T18:38:15;5.70;;;3.57;;
40601;SDS011;26310;50.278;19.032;2023-04-03T18:43:18;5.93;;;3.13;;
40601;SDS011;26310;50.278;19.032;2023-04-03T18:48:21;2.97;;;2.23;;
40601;SDS011;26310;50.278;19.032;2023-04-03T18:53:25;7.00;;;2.67;;
40601;SDS011;26310;50.278;19.032;2023-04-03T18:58:28;9.50;;;3.43;;
40601;SDS011;26310;50.278;19.032;2023-04-03T19:03:32;4.77;;;3.13;;
40601;SDS011;26310;50.278;19.032;2023-04-03T19:08:36;5.37;;;3.20;;
40601;SDS011;26310;50.278;19.032;2023-04-03T19:13:39;6.07;;;3.17;;
40601;SDS011;26310;50.278;19.032;2023-04-03T19:19:02;9.97;;;4.30;;
40601;SDS011;26310;50.278;19.032;2023-04-03T19:24:09;6.80;;;3.87;;
40601;SDS011;26310;50.278;19.032;2023-04-03T19:29:13;4.97;;;3.53;;
40601;SDS011;26310;50.278;19.032;2023-04-03T19:34:16;9.20;;;4.10;;
40601;SDS011;26310;50.278;19.032;2023-04-03T19:39:19;8.17;;;3.90;;
40601;SDS011;26310;50.278;19.032;2023-04-03T19:44:22;5.50;;;2.63;;
40601;SDS011;26310;50.278;19.032;2023-04-03T19:49:25;8.00;;;3.17;;
40601;SDS011;26310;50.278;19.032;2023-04-03T19:54:28;6.00;;;3.30;;
40601;SDS011;26310;50.278;19.032;2023-04-03T19:59:31;6.70;;;2.93;;
40601;SDS011;26310;50.278;19.032;2023-04-03T20:04:34;4.27;;;3.27;;
40601;SDS011;26310;50.278;19.032;2023-04-03T20:09:37;5.17;;;3.33;;
40601;SDS011;26310;50.278;19.032;2023-04-03T20:14:40;4.77;;;2.93;;
40601;SDS011;26310;50.278;19.032;2023-04-03T20:19:44;6.03;;;3.10;;
40601;SDS011;26310;50.278;19.032;2023-04-03T20:24:47;6.27;;;2.93;;
40601;SDS011;26310;50.278;19.032;2023-04-03T20:29:50;5.53;;;3.03;;
40601;SDS011;26310;50.278;19.032;2023-04-03T20:34:53;9.27;;;3.87;;
40601;SDS011;26310;50.278;19.032;2023-04-03T20:40:05;5.17;;;3.03;;
40601;SDS011;26310;50.278;19.032;2023-04-03T20:45:09;8.90;;;2.73;;
40601;SDS011;26310;50.278;19.032;2023-04-03T20:50:13;4.70;;;3.17;;
40601;SDS011;26310;50.278;19.032;2023-04-03T20:55:16;7.50;;;3.40;;
40601;SDS011;26310;50.278;19.032;2023-04-03T21:00:19;3.70;;;3.00;;
40601;SDS011;26310;50.278;19.032;2023-04-03T21:05:23;7.70;;;3.57;;
40601;SDS011;26310;50.278;19.032;2023-04-03T21:21:46;9.10;;;4.20;;
40601;SDS011;26310;50.278;19.032;2023-04-03T21:26:42;8.37;;;4.53;;
40601;SDS011;26310;50.278;19.032;2023-04-03T21:31:50;6.43;;;4.07;;
40601;SDS011;26310;50.278;19.032;2023-04-03T21:36:55;12.47;;;3.10;;
40601;SDS011;26310;50.278;19.032;2023-04-03T21:42:01;7.00;;;4.27;;
40601;SDS011;26310;50.278;19.032;2023-04-03T21:47:04;5.47;;;3.67;;
40601;SDS011;26310;50.278;19.032;2023-04-03T21:52:08;8.83;;;4.00;;
40601;SDS011;26310;50.278;19.032;2023-04-03T21:57:10;10.33;;;4.10;;
40601;SDS011;26310;50.278;19.032;2023-04-03T22:02:14;4.73;;;3.10;;
40601;SDS011;26310;50.278;19.032;2023-04-03T22:07:16;10.20;;;3.67;;
40601;SDS011;26310;50.278;19.032;2023-04-03T22:12:20;11.03;;;3.27;;
40601;SDS011;26310;50.278;19.032;2023-04-03T22:17:23;6.30;;;3.07;;
40601;SDS011;26310;50.278;19.032;2023-04-03T22:22:26;6.13;;;3.53;;
40601;SDS011;26310;50.278;19.032;2023-04-03T22:27:29;5.30;;;3.30;;
40601;SDS011;26310;50.278;19.032;2023-04-03T22:32:32;5.00;;;2.57;;
40601;SDS011;26310;50.278;19.032;2023-04-03T22:37:35;5.53;;;2.87;;
40601;SDS011;26310;50.278;19.032;2023-04-03T22:42:38;5.37;;;3.47;;
40601;SDS011;26310;50.278;19.032;2023-04-03T22:47:40;7.00;;;3.63;;
40601;SDS011;26310;50.278;19.032;2023-04-03T22:52:43;10.23;;;4.03;;
40601;SDS011;26310;50.278;19.032;2023-04-03T22:57:46;5.27;;;3.00;;
40601;SDS011;26310;50.278;19.032;2023-04-03T23:02:49;4.93;;;3.40;;
40601;SDS011;26310;50.278;19.032;2023-04-03T23:07:52;4.60;;;2.90;;
40601;SDS011;26310;50.278;19.032;2023-04-03T23:12:55;6.07;;;3.23;;
40601;SDS011;26310;50.278;19.032;2023-04-03T23:17:58;5.70;;;2.57;;
40601;SDS011;26310;50.278;19.032;2023-04-03T23:23:00;2.60;;;2.30;;
40601;SDS011;26310;50.278;19.032;2023-04-03T23:28:04;5.93;;;2.67;;
40601;SDS011;26310;50.278;19.032;2023-04-03T23:33:07;5.30;;;2.67;;
40601;SDS011;26310;50.278;19.032;2023-04-03T23:38:10;4.13;;;2.80;;
40601;SDS011;26310;50.278;19.032;2023-04-03T23:43:14;3.03;;;2.50;;
40601;SDS011;26310;50.278;19.032;2023-04-03T23:48:17;7.10;;;3.10;;
40601;SDS011;26310;50.278;19.032;2023-04-03T23:53:20;4.20;;;3.30;;
40601;SDS011;26310;50.278;19.032;2023-04-03T23:58:22;6.00;;;2.27;;
